Meteo Giornale » Osservazioni meteo Italia » Brescia-Montichiari

ore: 18:50 - Osservazioni Meteo Brescia-Montichiari
Lat. 45° 24' N Lon. 10° 18' E Alt. 104 metri s.l.m.

sereno Europe/Rome

19 °C

Sereno

Temp. 24 Ore

13 °C

23 °C

Nord

3.7 Km/h

Dew point 11 °C

Umidità 59 %

Visibilità  7 Km

Il sole sorge alle ore 07:40

Il sole tramonta alle ore 18:26

Data e Ora Cielo e Fenomeni T °C DP °C Um. % Pres. hPa Vis. km Vento km/h
Oggi h: 18:50 sereno Sereno 19 11 59 1022 7 N 3.7
Oggi h: 17:50 sereno Sereno 22 10 46 1022 10 N 1.8
Oggi h: 16:50 sereno Sereno 23 10 43 1022 10 N 5.5
Oggi h: 15:50 sereno Sereno 23 10 43 1022 10 N 3.7
Oggi h: 14:50 sereno Sereno 22 11 49 1023 7 N 3.7
Oggi h: 13:50 sereno Sereno 22 11 49 1023 7 O/SO 7.4
Oggi h: 12:50 sereno Sereno 21 12 56 1024 6 SO 9.3
Oggi h: 10:50 foschia Foschia 19 13 68 1024 5 N 0
Oggi h: 09:50 foschia Foschia 17 14 82 1023 5 N 3.7
Oggi h: 08:50 foschia Foschia 13 12 93 1023 4 N 3.7
Oggi h: 07:50 sereno Sereno 13 11 87 1022 10 N 3.7
Oggi h: 06:50 sereno Sereno 14 11 82 1021 10 N 5.5
Oggi h: 05:50 sereno Sereno 14 12 87 1021 8 N 3.7
Oggi h: 04:50 sereno Sereno 15 12 82 1021 10 NE 7.4
Oggi h: 03:50 sereno Sereno 14 11 82 1021 10 NE 7.4
Oggi h: 02:50 sereno Sereno 15 12 82 1021 10 N/NE 7.4
Oggi h: 01:50 sereno Sereno 14 12 87 1021 10 N 5.5
Ieri h: 23:50 sereno Sereno 16 12 77 1020 10 E/NE 11.1
Ieri h: 22:50 sereno Sereno 16 12 77 1020 10 N 5.5
Ieri h: 21:50 sereno Sereno 17 13 77 1020 10 N/NE 9.3
Ieri h: 20:50 sereno Sereno 17 13 77 1019 10 NE 7.4